New Braintree, Massachusetts
Current Conditions -  °F | °C
As of 1:54 PM on Tuesday 21 Oct 2014 (Local Time) from KORH Reporting Station
Overcast Overcast  
Wind Chill: 58°   Ceiling: 9500
Heat Index: 58°   Visibility: 10mi
Dew Point: 49°   Wind: 8mph
Humidity: 72%   Direction: 80°E
Pressure: 29.91"   Gusts: NA
Location:  42.3°N, 72.21°W
Report Text: KORH 211754Z 08007KT 10SM BKN095 OVC110 14/09 A2991 RMK AO2 SLP131 T01440094 10144 20072 58016
Loading
Personal Weather Stations






























Interactive Weather Map
Tropical Storm Tracking
New forecast layout! Learn more

10-Day Weather Forecast

Advertisements
Track Severe Weather on mobile